KFFA/FFA METAR and TAF weather

Enter ICAO airport designator
Station Type Date Time Source
KFFA METAR 2019/07/18 11:00 UTC NOAA

KFFA 181100Z AUTO 20005KT 10SM CLR 27/25 A2996 RMK AO2 T02670246


Station Type Date Time Source
KFFA Decoded METAR 2019/07/18 11:00 UTC NOAA

Kill Devil Hills, First Flight Airport, NC, United States (KFFA) 36-01N 075-40W
Jul 18, 2019 - 07:00 AM EDT / 2019.07.18 1100 UTC
Wind: from the SSW (200 degrees) at 6 MPH (5 KT):0
Visibility: 10 mile(s):0
Sky conditions: clear
Temperature: 80.1 F (26.7 C)
Dew Point: 76.3 F (24.6 C)
Relative Humidity: 88%
Pressure (altimeter): 29.96 in. Hg (1014 hPa)
ob: KFFA 181100Z AUTO 20005KT 10SM CLR 27/25 A2996 RMK AO2 T02670246
cycle: 11

Station Type Date Time Source
KFFA TAF UTC NOAA

Error!

Example: see airport list